SWA2597 KMCI-KDAL
Flight info
| Callsign | SWA2597 |
|---|---|
| Flight time | 1h 11m |
| Altitude | 32000 |
| Route | RACER8 DOSOA HITUG HIBIL3 |
| Aircraft | B738/M-SDE2E3FGHIRWXY/LB1 |
Departure
| Time | 2026-05-08 01:31 |
|---|---|
| Airport | Kansas City International Airport (KMCI) |
Arrival
| Time | 2026-05-08 02:43 |
|---|---|
| Airport | Dallas Love Field (KDAL) |
| Time | Latitude | Longitude | Altitude | Speed | Heading |
|---|---|---|---|---|---|
| 2026-05-08 01:08 | 39.29740 | -94.72396 | 1030 ft | 0 kts | 98° |
| 2026-05-08 01:18 | 39.29747 | -94.72414 | 1021 ft | 2 kts | 142° |
| 2026-05-08 01:19 | 39.29762 | -94.72423 | 1021 ft | 2 kts | 169° |
| 2026-05-08 01:19 | 39.29778 | -94.72425 | 1020 ft | 2 kts | 182° |
| 2026-05-08 01:19 | 39.29795 | -94.72423 | 1020 ft | 2 kts | 189° |
| 2026-05-08 01:19 | 39.29802 | -94.72421 | 1020 ft | 1 kts | 191° |
| 2026-05-08 01:20 | 39.29803 | -94.72421 | 1020 ft | 0 kts | 192° |
| 2026-05-08 01:22 | 39.29800 | -94.72422 | 1020 ft | 1 kts | 192° |
| 2026-05-08 01:22 | 39.29786 | -94.72426 | 1020 ft | 3 kts | 192° |
| 2026-05-08 01:23 | 39.29762 | -94.72432 | 1020 ft | 4 kts | 192° |
| 2026-05-08 01:23 | 39.29730 | -94.72441 | 1021 ft | 5 kts | 192° |
| 2026-05-08 01:23 | 39.29691 | -94.72451 | 1021 ft | 6 kts | 192° |
| 2026-05-08 01:23 | 39.29647 | -94.72464 | 1022 ft | 7 kts | 194° |
| 2026-05-08 01:24 | 39.29597 | -94.72472 | 1022 ft | 8 kts | 164° |
| 2026-05-08 01:24 | 39.29570 | -94.72412 | 1023 ft | 9 kts | 104° |
| 2026-05-08 01:24 | 39.29557 | -94.72326 | 1022 ft | 11 kts | 98° |
| 2026-05-08 01:24 | 39.29541 | -94.72225 | 1022 ft | 13 kts | 112° |
| 2026-05-08 01:25 | 39.29460 | -94.72197 | 1022 ft | 13 kts | 180° |
| 2026-05-08 01:25 | 39.29375 | -94.72225 | 1023 ft | 13 kts | 199° |
| 2026-05-08 01:25 | 39.29291 | -94.72266 | 1024 ft | 13 kts | 203° |
| 2026-05-08 01:25 | 39.29206 | -94.72281 | 1022 ft | 13 kts | 152° |
| 2026-05-08 01:26 | 39.29175 | -94.72172 | 1023 ft | 14 kts | 96° |
| 2026-05-08 01:26 | 39.29165 | -94.72035 | 1022 ft | 16 kts | 95° |
| 2026-05-08 01:26 | 39.29153 | -94.71882 | 1022 ft | 18 kts | 96° |
| 2026-05-08 01:26 | 39.29138 | -94.71711 | 1020 ft | 20 kts | 96° |
| 2026-05-08 01:27 | 39.29121 | -94.71524 | 1018 ft | 22 kts | 95° |
| 2026-05-08 01:27 | 39.29107 | -94.71335 | 1017 ft | 21 kts | 95° |
| 2026-05-08 01:27 | 39.29091 | -94.71142 | 1015 ft | 23 kts | 96° |
| 2026-05-08 01:27 | 39.29076 | -94.70933 | 1013 ft | 24 kts | 79° |
| 2026-05-08 01:28 | 39.29213 | -94.70846 | 1010 ft | 24 kts | 12° |
| 2026-05-08 01:28 | 39.29377 | -94.70796 | 1008 ft | 25 kts | 13° |
| 2026-05-08 01:28 | 39.29546 | -94.70748 | 1006 ft | 24 kts | 13° |
| 2026-05-08 01:28 | 39.29704 | -94.70702 | 1004 ft | 23 kts | 13° |
| 2026-05-08 01:29 | 39.29860 | -94.70655 | 1003 ft | 24 kts | 13° |
| 2026-05-08 01:29 | 39.30030 | -94.70605 | 1000 ft | 26 kts | 13° |
| 2026-05-08 01:29 | 39.30214 | -94.70551 | 1000 ft | 28 kts | 13° |
| 2026-05-08 01:29 | 39.30412 | -94.70492 | 998 ft | 30 kts | 13° |
| 2026-05-08 01:30 | 39.30616 | -94.70432 | 996 ft | 30 kts | 13° |
| 2026-05-08 01:30 | 39.30709 | -94.70323 | 993 ft | 16 kts | 96° |
| 2026-05-08 01:30 | 39.30679 | -94.70188 | 995 ft | 16 kts | 136° |
| 2026-05-08 01:30 | 39.30568 | -94.70184 | 995 ft | 22 kts | 192° |
| 2026-05-08 01:31 | 39.30159 | -94.70306 | 997 ft | 100 kts | 192° |
| 2026-05-08 01:31 | 39.29255 | -94.70572 | 1023 ft | 164 kts | 193° |
| 2026-05-08 01:31 | 39.28093 | -94.71129 | 1586 ft | 186 kts | 216° |
| 2026-05-08 01:31 | 39.27150 | -94.72144 | 2903 ft | 164 kts | 222° |
| 2026-05-08 01:32 | 39.26233 | -94.72969 | 3959 ft | 166 kts | 206° |
| 2026-05-08 01:32 | 39.25007 | -94.73385 | 4278 ft | 196 kts | 200° |
| 2026-05-08 01:32 | 39.23615 | -94.73918 | 4498 ft | 220 kts | 202° |
| 2026-05-08 01:32 | 39.22112 | -94.74520 | 4784 ft | 241 kts | 202° |
| 2026-05-08 01:33 | 39.20419 | -94.75193 | 5167 ft | 259 kts | 202° |
| 2026-05-08 01:33 | 39.18692 | -94.75869 | 5919 ft | 266 kts | 202° |
| 2026-05-08 01:33 | 39.16902 | -94.76563 | 6696 ft | 271 kts | 202° |
| 2026-05-08 01:33 | 39.15073 | -94.77269 | 7440 ft | 278 kts | 202° |
| 2026-05-08 01:34 | 39.13185 | -94.77997 | 8133 ft | 287 kts | 202° |
| 2026-05-08 01:34 | 39.11257 | -94.78738 | 8892 ft | 293 kts | 202° |
| 2026-05-08 01:34 | 39.09280 | -94.79496 | 9630 ft | 300 kts | 202° |
| 2026-05-08 01:34 | 39.07257 | -94.80272 | 10295 ft | 308 kts | 203° |
| 2026-05-08 01:35 | 39.05128 | -94.81093 | 10528 ft | 332 kts | 202° |
| 2026-05-08 01:35 | 39.02836 | -94.81978 | 10724 ft | 356 kts | 202° |
| 2026-05-08 01:35 | 39.00392 | -94.82916 | 10999 ft | 374 kts | 202° |
| 2026-05-08 01:35 | 38.97873 | -94.83872 | 11629 ft | 380 kts | 202° |
| 2026-05-08 01:36 | 38.95333 | -94.84832 | 12449 ft | 381 kts | 202° |
| 2026-05-08 01:36 | 38.92783 | -94.85796 | 13221 ft | 383 kts | 202° |
| 2026-05-08 01:36 | 38.90209 | -94.86774 | 13894 ft | 388 kts | 202° |
| 2026-05-08 01:36 | 38.87614 | -94.87759 | 14589 ft | 389 kts | 202° |
| 2026-05-08 01:37 | 38.85011 | -94.88747 | 15331 ft | 390 kts | 203° |
| 2026-05-08 01:37 | 38.82406 | -94.89736 | 16043 ft | 391 kts | 203° |
| 2026-05-08 01:37 | 38.79823 | -94.90717 | 16711 ft | 393 kts | 203° |
| 2026-05-08 01:37 | 38.77191 | -94.91717 | 17386 ft | 394 kts | 202° |
| 2026-05-08 01:38 | 38.74552 | -94.92717 | 18089 ft | 396 kts | 202° |
| 2026-05-08 01:38 | 38.71897 | -94.93701 | 18659 ft | 399 kts | 202° |
| 2026-05-08 01:38 | 38.69207 | -94.94650 | 19190 ft | 403 kts | 201° |
| 2026-05-08 01:38 | 38.66481 | -94.95593 | 19699 ft | 406 kts | 201° |
| 2026-05-08 01:39 | 38.63742 | -94.96537 | 20254 ft | 408 kts | 201° |
| 2026-05-08 01:39 | 38.60991 | -94.97486 | 20812 ft | 410 kts | 201° |
| 2026-05-08 01:39 | 38.58227 | -94.98442 | 21326 ft | 413 kts | 201° |
| 2026-05-08 01:39 | 38.55481 | -94.99394 | 21809 ft | 416 kts | 201° |
| 2026-05-08 01:40 | 38.52758 | -95.00340 | 22313 ft | 418 kts | 202° |
| 2026-05-08 01:40 | 38.49947 | -95.01316 | 22855 ft | 419 kts | 202° |
| 2026-05-08 01:40 | 38.47120 | -95.02297 | 23326 ft | 422 kts | 202° |
| 2026-05-08 01:40 | 38.44275 | -95.03285 | 23740 ft | 425 kts | 202° |
| 2026-05-08 01:41 | 38.41412 | -95.04277 | 24180 ft | 426 kts | 202° |
| 2026-05-08 01:41 | 38.38553 | -95.05267 | 24647 ft | 426 kts | 202° |
| 2026-05-08 01:41 | 38.35682 | -95.06259 | 25092 ft | 427 kts | 202° |
| 2026-05-08 01:41 | 38.32815 | -95.07249 | 25517 ft | 428 kts | 203° |
| 2026-05-08 01:42 | 38.29932 | -95.08246 | 25901 ft | 430 kts | 203° |
| 2026-05-08 01:42 | 38.27033 | -95.09248 | 26286 ft | 431 kts | 203° |
| 2026-05-08 01:42 | 38.24130 | -95.10251 | 26680 ft | 432 kts | 203° |
| 2026-05-08 01:42 | 38.21221 | -95.11253 | 27058 ft | 434 kts | 203° |
| 2026-05-08 01:43 | 38.18339 | -95.12245 | 27429 ft | 435 kts | 203° |
| 2026-05-08 01:43 | 38.15359 | -95.13102 | 27800 ft | 443 kts | 198° |
| 2026-05-08 01:43 | 38.12289 | -95.13665 | 28138 ft | 447 kts | 196° |
| 2026-05-08 01:43 | 38.09193 | -95.14148 | 28503 ft | 448 kts | 196° |
| 2026-05-08 01:44 | 38.06098 | -95.14605 | 28921 ft | 447 kts | 196° |
| 2026-05-08 01:44 | 38.03018 | -95.15062 | 29419 ft | 444 kts | 196° |
| 2026-05-08 01:44 | 37.99976 | -95.15525 | 29943 ft | 441 kts | 197° |
| 2026-05-08 01:44 | 37.96934 | -95.16001 | 30374 ft | 439 kts | 197° |
| 2026-05-08 01:45 | 37.93906 | -95.16487 | 30760 ft | 437 kts | 197° |
| 2026-05-08 01:45 | 37.90896 | -95.16977 | 31143 ft | 435 kts | 198° |
| 2026-05-08 01:45 | 37.87897 | -95.17469 | 31559 ft | 433 kts | 198° |
| 2026-05-08 01:45 | 37.84912 | -95.17958 | 31932 ft | 432 kts | 198° |
| 2026-05-08 01:46 | 37.81958 | -95.18446 | 31920 ft | 434 kts | 198° |
| 2026-05-08 01:46 | 37.75985 | -95.19428 | 31958 ft | 432 kts | 198° |
| 2026-05-08 01:47 | 37.70042 | -95.20398 | 31968 ft | 430 kts | 198° |
| 2026-05-08 01:47 | 37.64101 | -95.21366 | 31974 ft | 429 kts | 198° |
| 2026-05-08 01:48 | 37.55261 | -95.22804 | 31966 ft | 428 kts | 198° |
| 2026-05-08 01:48 | 37.49356 | -95.23763 | 31973 ft | 427 kts | 198° |
| 2026-05-08 01:49 | 37.43457 | -95.24720 | 31978 ft | 427 kts | 198° |
| 2026-05-08 01:49 | 37.37552 | -95.25677 | 31970 ft | 428 kts | 198° |
| 2026-05-08 01:50 | 37.31642 | -95.26631 | 31971 ft | 427 kts | 198° |
| 2026-05-08 01:50 | 37.25730 | -95.27585 | 31977 ft | 428 kts | 198° |
| 2026-05-08 01:51 | 37.19830 | -95.28536 | 31977 ft | 428 kts | 198° |
| 2026-05-08 01:51 | 37.13879 | -95.29498 | 31988 ft | 435 kts | 198° |
| 2026-05-08 01:52 | 37.07844 | -95.30471 | 31974 ft | 437 kts | 198° |
| 2026-05-08 01:52 | 37.01843 | -95.31426 | 31991 ft | 437 kts | 198° |
| 2026-05-08 01:53 | 36.95826 | -95.32386 | 31989 ft | 436 kts | 198° |
| 2026-05-08 01:53 | 36.89801 | -95.33347 | 31972 ft | 436 kts | 198° |
| 2026-05-08 01:54 | 36.83782 | -95.34299 | 31981 ft | 434 kts | 198° |
| 2026-05-08 01:54 | 36.77786 | -95.35260 | 31989 ft | 434 kts | 198° |
| 2026-05-08 01:55 | 36.71837 | -95.36209 | 31998 ft | 434 kts | 198° |
| 2026-05-08 01:55 | 36.65845 | -95.37161 | 32005 ft | 433 kts | 198° |
| 2026-05-08 01:56 | 36.59859 | -95.38110 | 31997 ft | 433 kts | 198° |
| 2026-05-08 01:56 | 36.53890 | -95.39054 | 31997 ft | 432 kts | 198° |
| 2026-05-08 01:57 | 36.47920 | -95.39998 | 32003 ft | 432 kts | 198° |
| 2026-05-08 01:57 | 36.41986 | -95.40934 | 32005 ft | 431 kts | 198° |
| 2026-05-08 01:58 | 36.36029 | -95.41872 | 31989 ft | 431 kts | 199° |
| 2026-05-08 01:58 | 36.30099 | -95.42804 | 32008 ft | 429 kts | 199° |
| 2026-05-08 01:59 | 36.24170 | -95.43736 | 32006 ft | 429 kts | 199° |
| 2026-05-08 01:59 | 36.18259 | -95.44663 | 32010 ft | 428 kts | 199° |
| 2026-05-08 02:00 | 36.12392 | -95.45582 | 31995 ft | 427 kts | 199° |
| 2026-05-08 02:00 | 36.06507 | -95.46501 | 32010 ft | 426 kts | 199° |
| 2026-05-08 02:01 | 36.00628 | -95.47420 | 32024 ft | 425 kts | 199° |
| 2026-05-08 02:01 | 35.94766 | -95.48334 | 32031 ft | 425 kts | 199° |
| 2026-05-08 02:02 | 35.88771 | -95.48572 | 32033 ft | 452 kts | 183° |
| 2026-05-08 02:02 | 35.82560 | -95.47264 | 32051 ft | 452 kts | 183° |
| 2026-05-08 02:03 | 35.76354 | -95.46011 | 32050 ft | 452 kts | 184° |
| 2026-05-08 02:03 | 35.70134 | -95.44801 | 32045 ft | 452 kts | 184° |
| 2026-05-08 02:04 | 35.63943 | -95.43612 | 32048 ft | 452 kts | 184° |
| 2026-05-08 02:04 | 35.57724 | -95.42418 | 32041 ft | 452 kts | 184° |
| 2026-05-08 02:05 | 35.51515 | -95.41228 | 32046 ft | 452 kts | 184° |
| 2026-05-08 02:05 | 35.45297 | -95.40038 | 32039 ft | 452 kts | 184° |
| 2026-05-08 02:06 | 35.39081 | -95.38849 | 32032 ft | 452 kts | 184° |
| 2026-05-08 02:06 | 35.32917 | -95.37671 | 32013 ft | 451 kts | 185° |
| 2026-05-08 02:07 | 35.26715 | -95.36488 | 32027 ft | 450 kts | 185° |
| 2026-05-08 02:07 | 35.21558 | -95.35507 | 32021 ft | 450 kts | 185° |
| 2026-05-08 02:08 | 35.15356 | -95.34328 | 32030 ft | 450 kts | 185° |
| 2026-05-08 02:08 | 35.09226 | -95.33162 | 32036 ft | 447 kts | 185° |
| 2026-05-08 02:09 | 35.03081 | -95.31998 | 32032 ft | 446 kts | 185° |
| 2026-05-08 02:09 | 34.96963 | -95.30864 | 32036 ft | 443 kts | 186° |
| 2026-05-08 02:10 | 34.90853 | -95.30012 | 32034 ft | 440 kts | 188° |
| 2026-05-08 02:10 | 34.84770 | -95.29240 | 32020 ft | 438 kts | 188° |
| 2026-05-08 02:11 | 34.78707 | -95.28440 | 32028 ft | 438 kts | 187° |
| 2026-05-08 02:11 | 34.72680 | -95.27623 | 32033 ft | 438 kts | 187° |
| 2026-05-08 02:12 | 34.66623 | -95.26797 | 32036 ft | 438 kts | 187° |
| 2026-05-08 02:12 | 34.60550 | -95.25970 | 32002 ft | 438 kts | 187° |
| 2026-05-08 02:13 | 34.54495 | -95.25146 | 32025 ft | 438 kts | 187° |
| 2026-05-08 02:13 | 34.48477 | -95.24330 | 32036 ft | 438 kts | 187° |
| 2026-05-08 02:14 | 34.42407 | -95.23509 | 32037 ft | 439 kts | 187° |
| 2026-05-08 02:14 | 34.36331 | -95.22686 | 31998 ft | 439 kts | 187° |
| 2026-05-08 02:15 | 34.30448 | -95.22760 | 32054 ft | 402 kts | 207° |
| 2026-05-08 02:15 | 34.27882 | -95.23928 | 32035 ft | 388 kts | 217° |
| 2026-05-08 02:15 | 34.25652 | -95.25653 | 32037 ft | 376 kts | 226° |
| 2026-05-08 02:16 | 34.23642 | -95.27616 | 31932 ft | 377 kts | 227° |
| 2026-05-08 02:16 | 34.21610 | -95.29656 | 31597 ft | 379 kts | 227° |
| 2026-05-08 02:16 | 34.19576 | -95.31700 | 31132 ft | 381 kts | 227° |
| 2026-05-08 02:16 | 34.17526 | -95.33745 | 30655 ft | 383 kts | 227° |
| 2026-05-08 02:17 | 34.15453 | -95.35798 | 30167 ft | 388 kts | 227° |
| 2026-05-08 02:17 | 34.13349 | -95.37872 | 29582 ft | 392 kts | 227° |
| 2026-05-08 02:17 | 34.11218 | -95.39964 | 29023 ft | 396 kts | 227° |
| 2026-05-08 02:17 | 34.09067 | -95.42069 | 28445 ft | 399 kts | 226° |
| 2026-05-08 02:18 | 34.06916 | -95.44169 | 27935 ft | 395 kts | 226° |
| 2026-05-08 02:18 | 34.04797 | -95.46234 | 27412 ft | 389 kts | 226° |
| 2026-05-08 02:18 | 34.02733 | -95.48247 | 26898 ft | 384 kts | 226° |
| 2026-05-08 02:18 | 34.00671 | -95.50259 | 26412 ft | 379 kts | 226° |
| 2026-05-08 02:19 | 33.98640 | -95.52237 | 25911 ft | 375 kts | 226° |
| 2026-05-08 02:19 | 33.96602 | -95.54193 | 25382 ft | 374 kts | 225° |
| 2026-05-08 02:19 | 33.94573 | -95.56128 | 24903 ft | 371 kts | 225° |
| 2026-05-08 02:19 | 33.92555 | -95.58053 | 24411 ft | 369 kts | 225° |
| 2026-05-08 02:20 | 33.90559 | -95.59955 | 24174 ft | 360 kts | 225° |
| 2026-05-08 02:20 | 33.88597 | -95.61832 | 23672 ft | 360 kts | 225° |
| 2026-05-08 02:20 | 33.86644 | -95.63708 | 23156 ft | 358 kts | 225° |
| 2026-05-08 02:20 | 33.84706 | -95.65573 | 22697 ft | 355 kts | 225° |
| 2026-05-08 02:21 | 33.82784 | -95.67420 | 22238 ft | 352 kts | 225° |
| 2026-05-08 02:21 | 33.80881 | -95.69248 | 21782 ft | 349 kts | 225° |
| 2026-05-08 02:21 | 33.78993 | -95.71060 | 21360 ft | 346 kts | 225° |
| 2026-05-08 02:21 | 33.77120 | -95.72857 | 20940 ft | 343 kts | 225° |
| 2026-05-08 02:22 | 33.75261 | -95.74640 | 20516 ft | 341 kts | 224° |
| 2026-05-08 02:22 | 33.73412 | -95.76412 | 20101 ft | 338 kts | 224° |
| 2026-05-08 02:22 | 33.71602 | -95.78145 | 19689 ft | 336 kts | 224° |
| 2026-05-08 02:22 | 33.69775 | -95.79895 | 19277 ft | 334 kts | 224° |
| 2026-05-08 02:23 | 33.67962 | -95.81629 | 18869 ft | 332 kts | 224° |
| 2026-05-08 02:23 | 33.66157 | -95.83355 | 18464 ft | 331 kts | 224° |
| 2026-05-08 02:23 | 33.64360 | -95.85071 | 18003 ft | 329 kts | 224° |
| 2026-05-08 02:23 | 33.62573 | -95.86778 | 17565 ft | 327 kts | 224° |
| 2026-05-08 02:24 | 33.60792 | -95.88478 | 17136 ft | 325 kts | 224° |
| 2026-05-08 02:24 | 33.59029 | -95.90159 | 16734 ft | 323 kts | 224° |
| 2026-05-08 02:24 | 33.57283 | -95.91823 | 16425 ft | 318 kts | 224° |
| 2026-05-08 02:24 | 33.55556 | -95.93469 | 16024 ft | 316 kts | 224° |
| 2026-05-08 02:25 | 33.53838 | -95.95106 | 15624 ft | 314 kts | 223° |
| 2026-05-08 02:25 | 33.52130 | -95.96733 | 15245 ft | 313 kts | 223° |
| 2026-05-08 02:25 | 33.50428 | -95.98353 | 14857 ft | 312 kts | 223° |
| 2026-05-08 02:25 | 33.48730 | -95.99968 | 14487 ft | 311 kts | 223° |
| 2026-05-08 02:26 | 33.47102 | -96.01515 | 14112 ft | 311 kts | 223° |
| 2026-05-08 02:26 | 33.45399 | -96.03135 | 13681 ft | 312 kts | 223° |
| 2026-05-08 02:26 | 33.43699 | -96.04753 | 13265 ft | 312 kts | 223° |
| 2026-05-08 02:26 | 33.42000 | -96.06369 | 12864 ft | 310 kts | 223° |
| 2026-05-08 02:27 | 33.40316 | -96.07971 | 12479 ft | 309 kts | 223° |
| 2026-05-08 02:27 | 33.38636 | -96.09570 | 12097 ft | 308 kts | 222° |
| 2026-05-08 02:27 | 33.36960 | -96.11161 | 11718 ft | 307 kts | 222° |
| 2026-05-08 02:27 | 33.35290 | -96.12747 | 11338 ft | 306 kts | 222° |
| 2026-05-08 02:28 | 33.33640 | -96.14338 | 10958 ft | 303 kts | 226° |
| 2026-05-08 02:28 | 33.32378 | -96.16299 | 10760 ft | 291 kts | 244° |
| 2026-05-08 02:28 | 33.31556 | -96.18465 | 10623 ft | 282 kts | 248° |
| 2026-05-08 02:28 | 33.30818 | -96.20606 | 10487 ft | 274 kts | 249° |
| 2026-05-08 02:29 | 33.30113 | -96.22660 | 10366 ft | 266 kts | 248° |
| 2026-05-08 02:29 | 33.29412 | -96.24676 | 10251 ft | 258 kts | 248° |
| 2026-05-08 02:29 | 33.28724 | -96.26631 | 10108 ft | 252 kts | 248° |
| 2026-05-08 02:29 | 33.28041 | -96.28558 | 9834 ft | 251 kts | 248° |
| 2026-05-08 02:30 | 33.27357 | -96.30478 | 9553 ft | 250 kts | 248° |
| 2026-05-08 02:30 | 33.26677 | -96.32385 | 9272 ft | 249 kts | 248° |
| 2026-05-08 02:30 | 33.25874 | -96.34214 | 9052 ft | 248 kts | 237° |
| 2026-05-08 02:30 | 33.24824 | -96.35856 | 8888 ft | 250 kts | 233° |
| 2026-05-08 02:31 | 33.23723 | -96.37488 | 8692 ft | 253 kts | 233° |
| 2026-05-08 02:31 | 33.22632 | -96.39113 | 8515 ft | 256 kts | 233° |
| 2026-05-08 02:31 | 33.21525 | -96.40787 | 8324 ft | 257 kts | 234° |
| 2026-05-08 02:31 | 33.20423 | -96.42467 | 8134 ft | 258 kts | 234° |
| 2026-05-08 02:32 | 33.19317 | -96.44161 | 7935 ft | 258 kts | 234° |
| 2026-05-08 02:32 | 33.18214 | -96.45854 | 7751 ft | 258 kts | 234° |
| 2026-05-08 02:32 | 33.17127 | -96.47566 | 7556 ft | 258 kts | 236° |
| 2026-05-08 02:32 | 33.16095 | -96.49316 | 7372 ft | 258 kts | 237° |
| 2026-05-08 02:33 | 33.15075 | -96.51074 | 7177 ft | 257 kts | 237° |
| 2026-05-08 02:33 | 33.14057 | -96.52827 | 6997 ft | 257 kts | 237° |
| 2026-05-08 02:33 | 33.13035 | -96.54579 | 6808 ft | 257 kts | 236° |
| 2026-05-08 02:33 | 33.12016 | -96.56323 | 6625 ft | 256 kts | 237° |
| 2026-05-08 02:34 | 33.10993 | -96.58067 | 6426 ft | 256 kts | 236° |
| 2026-05-08 02:34 | 33.09987 | -96.59781 | 6232 ft | 255 kts | 236° |
| 2026-05-08 02:34 | 33.08956 | -96.61533 | 6035 ft | 255 kts | 236° |
| 2026-05-08 02:34 | 33.07939 | -96.63262 | 5849 ft | 255 kts | 236° |
| 2026-05-08 02:35 | 33.06816 | -96.64853 | 5637 ft | 256 kts | 220° |
| 2026-05-08 02:35 | 33.05492 | -96.66291 | 5456 ft | 254 kts | 236° |
| 2026-05-08 02:35 | 33.04747 | -96.68152 | 5299 ft | 252 kts | 250° |
| 2026-05-08 02:35 | 33.04167 | -96.70156 | 5057 ft | 257 kts | 252° |
| 2026-05-08 02:36 | 33.03604 | -96.72173 | 5025 ft | 256 kts | 252° |
| 2026-05-08 02:36 | 33.03059 | -96.74148 | 5017 ft | 244 kts | 252° |
| 2026-05-08 02:36 | 33.02544 | -96.76014 | 4924 ft | 230 kts | 252° |
| 2026-05-08 02:36 | 33.02054 | -96.77776 | 4709 ft | 221 kts | 252° |
| 2026-05-08 02:37 | 33.01575 | -96.79498 | 4385 ft | 217 kts | 252° |
| 2026-05-08 02:37 | 33.01118 | -96.81197 | 4056 ft | 214 kts | 252° |
| 2026-05-08 02:37 | 33.00683 | -96.82880 | 3725 ft | 211 kts | 252° |
| 2026-05-08 02:37 | 33.00263 | -96.84542 | 3402 ft | 209 kts | 252° |
| 2026-05-08 02:38 | 32.99867 | -96.86190 | 3096 ft | 206 kts | 252° |
| 2026-05-08 02:38 | 32.99495 | -96.87784 | 3010 ft | 196 kts | 252° |
| 2026-05-08 02:38 | 32.99139 | -96.89330 | 3011 ft | 191 kts | 252° |
| 2026-05-08 02:38 | 32.98787 | -96.90861 | 3007 ft | 192 kts | 252° |
| 2026-05-08 02:39 | 32.98417 | -96.92402 | 3013 ft | 194 kts | 246° |
| 2026-05-08 02:39 | 32.97582 | -96.93597 | 3014 ft | 188 kts | 207° |
| 2026-05-08 02:39 | 32.96328 | -96.93896 | 3018 ft | 186 kts | 176° |
| 2026-05-08 02:39 | 32.95051 | -96.93755 | 3023 ft | 188 kts | 173° |
| 2026-05-08 02:40 | 32.93739 | -96.93588 | 3009 ft | 190 kts | 173° |
| 2026-05-08 02:40 | 32.92425 | -96.93418 | 2982 ft | 188 kts | 173° |
| 2026-05-08 02:40 | 32.91197 | -96.93092 | 2694 ft | 180 kts | 146° |
| 2026-05-08 02:40 | 32.90427 | -96.91945 | 2207 ft | 177 kts | 121° |
| 2026-05-08 02:41 | 32.89848 | -96.90671 | 1792 ft | 168 kts | 123° |
| 2026-05-08 02:41 | 32.89145 | -96.89626 | 1429 ft | 157 kts | 137° |
| 2026-05-08 02:41 | 32.88394 | -96.88754 | 1238 ft | 147 kts | 137° |
| 2026-05-08 02:41 | 32.87673 | -96.87916 | 1073 ft | 142 kts | 138° |
| 2026-05-08 02:42 | 32.86985 | -96.87113 | 861 ft | 134 kts | 137° |
| 2026-05-08 02:42 | 32.86315 | -96.86345 | 677 ft | 137 kts | 138° |
| 2026-05-08 02:42 | 32.85606 | -96.85533 | 518 ft | 143 kts | 137° |
| 2026-05-08 02:42 | 32.84943 | -96.84776 | 488 ft | 111 kts | 135° |
| 2026-05-08 02:43 | 32.84544 | -96.84316 | 495 ft | 50 kts | 136° |
| 2026-05-08 02:43 | 32.84456 | -96.84261 | 491 ft | 11 kts | 195° |
| 2026-05-08 02:43 | 32.84442 | -96.84269 | 491 ft | 0 kts | 211° |
| 2026-05-08 02:45 | 32.84435 | -96.84274 | 493 ft | 5 kts | 211° |
| 2026-05-08 02:45 | 32.84409 | -96.84318 | 488 ft | 8 kts | 268° |
| 2026-05-08 02:45 | 32.84446 | -96.84380 | 494 ft | 12 kts | 313° |
| 2026-05-08 02:46 | 32.84511 | -96.84455 | 495 ft | 15 kts | 316° |
| 2026-05-08 02:46 | 32.84598 | -96.84554 | 492 ft | 20 kts | 316° |
| 2026-05-08 02:46 | 32.84709 | -96.84684 | 490 ft | 24 kts | 317° |
| 2026-05-08 02:46 | 32.84770 | -96.84801 | 489 ft | 10 kts | 250° |
| 2026-05-08 02:47 | 32.84744 | -96.84877 | 489 ft | 10 kts | 265° |
| 2026-05-08 02:47 | 32.84744 | -96.84967 | 489 ft | 12 kts | 270° |
| 2026-05-08 02:47 | 32.84745 | -96.85049 | 490 ft | 13 kts | 270° |
| 2026-05-08 02:47 | 32.84745 | -96.85163 | 490 ft | 15 kts | 270° |
| 2026-05-08 02:48 | 32.84735 | -96.85290 | 488 ft | 16 kts | 232° |
| 2026-05-08 02:48 | 32.84652 | -96.85249 | 483 ft | 14 kts | 134° |
| 2026-05-08 02:48 | 32.84638 | -96.85233 | 486 ft | 0 kts | 136° |